Latest Weather Observations for Redcliffe

IDQ60901

Issued at 7:51 pm EST Sunday 24 January 2021 (issued every 10 minutes, with the page automatically refreshed every 10 minutes)

About weather observations | Map of Brisbane area stations | Latest observations for Brisbane area | Other Formats
Station Details ID: 040958 Name: REDCLIFFE Lat: -27.22 Lon: 153.09 Height: 12.6 m
Data from the previous 72 hours. | See also: Recent months at Redcliffe
Date/Time
EST
Temp
°C
App
Temp
°C
Dew
Point
°C
Rel
Hum
%
Delta-T
°C
Wind Press
QNH
hPa
Press
MSL
hPa
Rain since
9am
mm
Dir  Spd
km/h
Gust
km/h
Spd
kts
Gust
kts
24/07:30pm 23.5 25.7 20.4 83 2.0 NE 9 13 5 7 1013.8 1013.7 0.0
24/07:00pm 23.3 25.3 20.8 86 1.6 NE 11 17 6 9 1013.6 1013.5 0.0
24/06:30pm 23.0 24.7 20.9 88 1.4 ENE 13 17 7 9 1013.4 1013.3 0.0
24/06:00pm 22.5 23.4 20.8 90 1.1 E 17 20 9 11 1013.2 1013.1 0.0
24/05:30pm 23.6 21.3 20.1 81 2.3 ENE 32 35 17 19 1013.0 1012.9 0.0
24/05:00pm 24.1 23.2 20.6 81 2.3 NE 26 32 14 17 1012.9 1012.8 0.0
24/04:30pm 25.5 25.6 20.3 73 3.4 E 20 26 11 14 1012.8 1012.7 0.0
24/04:00pm 25.8 26.7 20.8 74 3.3 ENE 17 22 9 12 1012.7 1012.6 0.0
24/03:30pm 25.5 25.7 20.5 74 3.3 ENE 20 24 11 13 1012.7 1012.6 0.0
24/03:00pm 25.2 23.6 20.0 73 3.4 NE 28 33 15 18 1012.7 1012.6 0.0
24/02:30pm 26.8 27.6 20.6 69 4.1 ENE 17 24 9 13 1012.9 1012.8 0.0
24/02:00pm 27.5 26.7 18.5 58 5.8 E 20 24 11 13 1013.0 1012.9 0.0
24/01:30pm 27.2 26.6 18.8 60 5.4 ESE 20 26 11 14 1013.3 1013.2 0.0
24/01:00pm 27.6 27.1 18.6 58 5.8 ESE 19 22 10 12 1013.7 1013.6 0.0
24/12:30pm 27.4 27.2 17.6 55 6.2 ESE 15 19 8 10 1014.2 1014.1 0.0
24/12:00pm 27.4 26.8 16.7 52 6.6 ESE 15 17 8 9 1014.6 1014.5 0.0
24/11:30am 27.8 28.4 18.5 57 5.9 E 13 17 7 9 1014.8 1014.7 0.0
24/11:00am 27.5 28.2 19.6 62 5.1 ESE 15 19 8 10 1015.1 1015.0 0.0
24/10:30am 26.5 26.3 18.6 62 5.0 SE 17 20 9 11 1015.4 1015.3 0.0
24/10:00am 26.9 26.2 18.7 60 5.2 SE 20 26 11 14 1015.5 1015.4 0.0
24/09:30am 26.7 26.9 19.3 64 4.8 ESE 17 20 9 11 1015.6 1015.5 0.0
24/09:00am 26.8 27.4 19.4 64 4.8 S 15 17 8 9 1015.5 1015.4 0.0
24/08:30am 26.2 27.1 19.3 65 4.4 S 13 17 7 9 1015.6 1015.5 0.0
24/08:00am 25.4 26.2 19.1 68 4.0 SSW 13 19 7 10 1015.4 1015.3 0.0
24/07:30am 23.8 24.6 19.1 75 3.0 SSW 13 19 7 10 1015.4 1015.3 0.0
24/07:00am 22.2 22.2 18.2 78 2.5 SSW 15 20 8 11 1015.2 1015.1 0.0
24/06:30am 21.5 22.4 18.3 82 2.0 SSW 11 15 6 8 1015.0 1014.9 0.0
24/06:00am 21.1 21.4 17.9 82 2.0 SW 13 17 7 9 1014.6 1014.5 0.0
24/05:30am 20.7 20.5 17.7 83 1.8 SSW 15 20 8 11 1014.3 1014.2 0.0
24/05:00am 20.5 21.2 17.1 81 2.1 SW 9 17 5 9 1013.9 1013.8 0.0
24/04:30am 20.6 20.8 16.8 79 2.3 SW 11 13 6 7 1013.9 1013.8 0.0
24/04:00am 21.3 22.7 17.3 78 2.5 E 6 7 3 4 1013.6 1013.5 0.0
24/03:30am 20.8 20.6 16.6 77 2.5 E 13 17 7 9 1013.5 1013.4 0.0
24/03:00am 21.1 21.0 16.1 73 3.0 E 11 15 6 8 1013.6 1013.5 0.0
24/02:30am 22.3 22.2 16.1 68 3.7 E 11 15 6 8 1014.0 1013.9 0.0
24/02:00am 22.4 22.2 15.7 66 4.0 E 11 15 6 8 1014.2 1014.1 0.0
24/01:30am 22.6 21.9 15.4 64 4.3 ESE 13 17 7 9 1014.6 1014.5 0.0
24/01:00am 23.6 22.5 15.4 60 4.9 E 15 19 8 10 1015.0 1014.9 0.0
24/12:30am 23.7 22.3 15.5 60 4.9 E 17 22 9 12 1015.3 1015.2 0.0
24/12:00am 23.7 21.7 15.5 60 4.9 ESE 20 26 11 14 1015.3 1015.2 0.0
 
Date/Time
EST
Temp
°C
App
Temp
°C
Dew
Point
°C
Rel
Hum
%
Delta-T
°C
Wind Press
QNH
hPa
Press
MSL
hPa
Rain since
9am
mm
Dir  Spd
km/h
Gust
km/h
Spd
kts
Gust
kts
23/11:30pm 24.0 21.8 15.0 57 5.4 E 20 26 11 14 1015.7 1015.6 0.0
23/11:00pm 24.2 22.1 16.2 61 4.9 E 22 26 12 14 1015.9 1015.8 0.0
23/10:30pm 24.2 21.8 16.5 62 4.7 E 24 30 13 16 1015.9 1015.8 0.0
23/10:00pm 24.1 21.8 16.6 63 4.6 E 24 30 13 16 1015.9 1015.8 0.0
23/09:30pm 24.3 21.9 16.3 61 4.9 E 24 32 13 17 1016.0 1015.9 0.0
23/09:00pm 24.5 22.0 17.0 63 4.6 E 26 32 14 17 1015.9 1015.8 0.0
23/08:30pm 24.4 22.4 17.4 65 4.4 E 24 28 13 15 1015.8 1015.7 0.0
23/08:00pm 24.6 22.2 17.3 64 4.5 E 26 30 14 16 1015.5 1015.4 0.0
23/07:30pm 24.6 22.3 17.6 65 4.4 E 26 30 14 16 1015.1 1015.0 0.0
23/07:00pm 24.7 22.8 17.7 65 4.4 E 24 28 13 15 1015.0 1014.9 0.0
23/06:30pm 25.0 23.5 17.7 64 4.6 E 22 28 12 15 1014.7 1014.6 0.0
23/06:00pm 25.5 23.5 17.4 61 5.1 E 24 26 13 14 1014.3 1014.2 0.0
23/05:30pm 25.8 24.4 16.9 58 5.5 E 20 26 11 14 1014.0 1013.9 0.0
23/05:00pm 26.4 24.8 17.5 58 5.6 E 22 26 12 14 1013.9 1013.8 0.0
23/04:30pm 26.5 24.5 16.4 53 6.2 E 22 26 12 14 1013.6 1013.5 0.0
23/04:00pm 26.6 24.9 17.1 56 5.9 ESE 22 26 12 14 1013.5 1013.4 0.0
23/03:30pm 27.0 25.4 17.5 56 6.0 E 22 28 12 15 1013.6 1013.5 0.0
23/03:00pm 27.0 25.1 16.6 53 6.4 ESE 22 26 12 14 1013.6 1013.5 0.0
23/02:30pm 26.9 24.8 16.2 52 6.6 E 22 26 12 14 1013.7 1013.6 0.0
23/02:00pm 26.7 25.0 16.3 53 6.4 E 20 26 11 14 1013.9 1013.8 0.0
23/01:30pm 27.1 25.2 16.7 53 6.5 E 22 26 12 14 1014.1 1014.0 0.0
23/01:00pm 27.4 26.5 17.8 55 6.1 E 19 22 10 12 1014.2 1014.1 0.0
23/12:30pm 26.9 26.2 17.4 56 6.0 E 17 20 9 11 1014.4 1014.3 0.0
23/12:00pm 26.7 26.2 16.9 55 6.1 E 15 17 8 9 1014.6 1014.5 0.0
23/11:30am 27.0 27.7 18.0 58 5.7 E 11 15 6 8 1014.8 1014.7 0.0
23/11:00am 26.5 27.3 18.1 60 5.3 ESE 11 13 6 7 1015.0 1014.9 0.0
23/10:30am 26.1 27.6 18.0 61 5.1 SE 7 11 4 6 1015.2 1015.1 0.0
23/10:00am 26.4 27.5 18.0 60 5.3 ESE 9 13 5 7 1015.3 1015.2 0.0
23/09:30am 24.8 26.4 17.8 65 4.4 SE 6 11 3 6 1015.1 1015.0 0.0
23/09:00am 25.3 26.2 17.5 62 4.9 SSE 9 13 5 7 1015.1 1015.0 0.0
23/08:30am 26.1 26.1 18.0 61 5.1 S 15 17 8 9 1014.9 1014.8 0.0
23/08:00am 25.1 24.8 18.3 66 4.3 S 17 22 9 12 1014.9 1014.8 0.0
23/07:30am 25.0 25.1 19.1 70 3.8 S 17 20 9 11 1014.9 1014.8 0.0
23/07:00am 23.2 23.5 18.7 76 2.8 S 15 19 8 10 1014.7 1014.6 0.0
23/06:30am 21.9 22.6 17.9 78 2.5 SW 11 15 6 8 1014.4 1014.3 0.0
23/06:00am 20.6 21.5 18.4 87 1.4 SW 11 15 6 8 1014.1 1014.0 0.0
23/05:30am 20.0 20.4 18.1 89 1.2 WSW 13 15 7 8 1013.8 1013.7 0.0
23/05:00am 20.1 20.5 18.2 89 1.2 WSW 13 15 7 8 1013.5 1013.4 0.0
23/04:30am 20.2 21.0 18.1 88 1.3 WSW 11 13 6 7 1013.1 1013.0 0.0
23/04:00am 20.4 20.8 18.2 87 1.4 WSW 13 15 7 8 1012.9 1012.8 0.0
23/03:30am 20.8 22.2 18.6 87 1.4 WSW 9 11 5 6 1012.8 1012.7 0.0
23/03:00am 21.0 22.4 18.6 86 1.5 W 9 11 5 6 1012.7 1012.6 0.0
23/02:30am 21.4 22.2 18.2 82 2.0 WSW 11 13 6 7 1012.8 1012.7 0.0
23/02:00am 21.6 22.6 17.8 79 2.4 WSW 9 11 5 6 1012.9 1012.8 0.0
23/01:30am 21.8 21.6 17.6 77 2.6 N 15 19 8 10 1013.2 1013.1 0.0
23/01:00am 22.7 22.6 17.8 74 3.0 NNE 15 20 8 11 1013.4 1013.3 0.0
23/12:30am 23.6 22.8 18.0 71 3.5 NNE 19 22 10 12 1013.4 1013.3 0.0
23/12:00am 24.1 23.0 17.4 66 4.2 NE 19 24 10 13 1013.8 1013.7 0.0
 
Date/Time
EST
Temp
°C
App
Temp
°C
Dew
Point
°C
Rel
Hum
%
Delta-T
°C
Wind Press
QNH
hPa
Press
MSL
hPa
Rain since
9am
mm
Dir  Spd
km/h
Gust
km/h
Spd
kts
Gust
kts
22/11:30pm 24.2 22.9 17.2 65 4.3 NE 20 26 11 14 1013.9 1013.8 0.0
22/11:00pm 24.1 23.0 17.4 66 4.2 NE 19 24 10 13 1014.0 1013.9 0.0
22/10:30pm 24.2 23.1 17.4 65 4.2 NE 19 22 10 12 1014.2 1014.1 0.0
22/10:00pm 24.1 22.9 17.4 66 4.2 NE 20 26 11 14 1014.2 1014.1 0.0
22/09:30pm 24.2 23.0 17.4 65 4.2 NE 20 26 11 14 1014.1 1014.0 0.0
22/09:00pm 24.1 22.4 17.1 65 4.3 NNE 22 26 12 14 1014.0 1013.9 0.0
22/08:30pm 24.2 23.1 17.2 65 4.3 NE 19 26 10 14 1013.9 1013.8 0.0
22/08:00pm 24.3 23.1 17.5 66 4.2 NNE 20 26 11 14 1013.7 1013.6 0.0
22/07:30pm 24.4 23.0 17.1 63 4.5 NE 20 26 11 14 1013.5 1013.4 0.0
22/07:00pm 24.5 23.3 17.5 65 4.4 NNE 20 26 11 14 1013.3 1013.2 0.0
22/06:30pm 24.8 22.4 16.5 60 5.1 NNE 24 28 13 15 1012.8 1012.7 0.0
22/06:00pm 24.9 22.3 16.9 61 4.9 NE 26 30 14 16 1012.3 1012.2 0.0
22/05:30pm 25.5 22.5 15.8 55 5.9 NNE 26 30 14 16 1012.1 1012.0 0.0
22/05:00pm 26.2 23.0 16.4 54 6.0 NNE 28 32 15 17 1011.7 1011.6 0.0
22/04:30pm 25.8 23.4 16.4 56 5.8 NNE 24 28 13 15 1011.9 1011.8 0.0
22/04:00pm 26.1 23.5 16.9 57 5.7 NE 26 30 14 16 1011.8 1011.7 0.0
22/03:30pm 26.0 23.6 16.3 55 6.0 NE 24 30 13 16 1011.8 1011.7 0.0
22/03:00pm 25.7 24.0 16.3 56 5.8 NE 20 26 11 14 1012.2 1012.1 0.0
22/02:30pm 26.3 24.7 16.5 54 6.1 ENE 20 26 11 14 1012.5 1012.4 0.0
22/02:00pm 26.6 25.2 16.5 54 6.2 NE 19 24 10 13 1013.0 1012.9 0.0
22/01:30pm 25.8 24.1 15.8 54 6.1 NE 19 22 10 12 1013.4 1013.3 0.0
22/01:00pm 26.4 25.2 16.1 53 6.3 ENE 17 20 9 11 1013.7 1013.6 0.0
22/12:30pm 26.0 25.0 15.7 53 6.3 ENE 15 19 8 10 1014.2 1014.1 0.0
22/12:00pm 26.6 26.3 16.5 54 6.2 NE 13 17 7 9 1014.4 1014.3 0.0
22/11:30am 26.5 26.1 15.2 49 6.8 E 11 15 6 8 1014.6 1014.5 0.0
22/11:00am 25.9 25.9 15.3 52 6.4 E 9 13 5 7 1014.8 1014.7 0.0
22/10:30am 25.9 26.0 15.6 53 6.3 E 9 11 5 6 1015.1 1015.0 0.0
22/10:00am 25.8 26.4 15.8 54 6.1 SE 7 11 4 6 1015.3 1015.2 0.0
22/09:30am 25.4 25.5 15.4 54 6.0 SSE 9 11 5 6 1015.3 1015.2 0.0
22/09:00am 25.3 25.9 16.7 59 5.3 S 9 13 5 7 1015.1 1015.0 0.0
22/08:30am 25.0 24.9 17.0 61 5.0 S 13 15 7 8 1015.3 1015.2 0.0
22/08:00am 24.6 24.9 17.1 63 4.6 SSE 11 15 6 8 1015.2 1015.1 0.0
22/07:30am 23.5 23.6 17.5 69 3.7 S 13 17 7 9 1015.2 1015.1 0.0
22/07:00am 21.6 22.0 17.2 76 2.7 SSW 11 13 6 7 1015.3 1015.2 0.0
22/06:30am 20.8 21.0 16.8 78 2.4 SSW 11 13 6 7 1015.1 1015.0 0.0
22/06:00am 20.2 20.0 16.6 80 2.2 WSW 13 17 7 9 1014.9 1014.8 0.0
22/05:30am 19.6 19.0 16.6 83 1.8 WSW 15 17 8 9 1015.0 1014.9 0.0
22/05:00am 19.5 19.7 16.7 84 1.7 WSW 11 15 6 8 1014.7 1014.6 0.0
22/04:30am 19.8 20.0 16.8 83 1.8 ENE 11 15 6 8 1014.5 1014.4 0.0
22/04:00am 20.3 20.3 17.1 82 1.9 E 13 17 7 9 1014.3 1014.2 0.0
22/03:30am 21.3 20.5 16.0 72 3.2 ENE 15 19 8 10 1014.2 1014.1 0.0
22/03:00am 22.7 21.2 16.3 67 3.9 ENE 19 22 10 12 1014.2 1014.1 0.0
22/02:30am 22.6 21.6 15.7 65 4.1 E 15 20 8 11 1014.2 1014.1 0.0
22/02:00am 22.6 21.3 15.9 66 4.0 E 17 20 9 11 1014.3 1014.2 0.0
22/01:30am 23.1 22.2 15.9 64 4.3 E 15 20 8 11 1014.4 1014.3 0.0
22/01:00am 23.3 21.7 15.1 60 4.9 ESE 17 22 9 12 1014.7 1014.6 0.0
22/12:30am 23.6 21.8 15.6 61 4.8 E 19 24 10 13 1015.1 1015.0 0.0
22/12:00am 23.5 21.8 16.3 64 4.4 E 20 26 11 14 1015.4 1015.3 0.0
 
Date/Time
EST
Temp
°C
App
Temp
°C
Dew
Point
°C
Rel
Hum
%
Delta-T
°C
Wind Press
QNH
hPa
Press
MSL
hPa
Rain since
9am
mm
Dir  Spd
km/h
Gust
km/h
Spd
kts
Gust
kts
21/11:30pm 23.4 20.9 16.2 64 4.4 ESE 24 28 13 15 1015.6 1015.5 0.0
21/11:00pm 23.6 21.3 15.6 61 4.8 ESE 22 26 12 14 1015.8 1015.7 0.0
21/10:30pm 23.9 21.8 16.2 62 4.7 ESE 22 26 12 14 1016.1 1016.0 0.0
21/10:00pm 23.8 21.5 16.6 64 4.4 E 24 30 13 16 1016.3 1016.2 0.0
21/09:30pm 23.9 22.3 16.4 63 4.6 E 20 26 11 14 1016.3 1016.2 0.0
21/09:00pm 24.0 22.0 16.5 63 4.6 E 22 28 12 15 1016.0 1015.9 0.0
21/08:30pm 23.9 21.9 16.4 63 4.6 E 22 28 12 15 1015.8 1015.7 0.0
21/08:00pm 23.9 22.4 16.7 64 4.4 ESE 20 26 11 14 1015.6 1015.5 0.0

Latest Capital City Observations: Canberra | Sydney | Melbourne | Brisbane | Adelaide | Perth | Hobart | Darwin

Other formats

Comma delimited format used in spreadsheet applications
http://www.bom.gov.au/fwo/IDQ60901/IDQ60901.95591.axf

JavaScript Object Notation format (JSON) in row-major order
http://www.bom.gov.au/fwo/IDQ60901/IDQ60901.95591.json

Data quality

Most of these data are generated automatically and are frequently updated. Quality checks on data are not normally performed. It is possible for incorrect values to appear. Refer to information at About Latest Weather Observations and please check the disclaimer before using these data.